Аэропорт: Адлер. Сочи

ICAO: URSS

METAR:
2019/05/26 14:00
URSS 261400Z 20002MPS 9999 FEW027 BKN080 19/15 Q1018 R02/010070 R06/010070 NOSIG RMK R06/19003MPS MT OBSC QFE762
METAR:
2019/05/26 12:21
TAF URSS 261056Z 2612/2712 22005G10MPS 9999 SCT030CB BKN100 
      TEMPO 2612/2616 VRB07G12MPS -TSRA 
      BECMG 2616/2618 05005G10MPS 
      TEMPO 2618/2706 VRB07G12MPS BKN011 BKN020CB 
      BECMG 2706/2708 22005G10MPS SCT030 BKN100